createdAt,value
2017-06-03T00:00:59.101Z,19.9
2017-06-03T00:02:02.243Z,19.9
2017-06-03T00:03:05.092Z,19.9
2017-06-03T00:04:07.936Z,19.8
2017-06-03T00:05:10.646Z,19.9
2017-06-03T00:06:13.355Z,20
2017-06-03T00:07:16.453Z,20
2017-06-03T00:08:19.161Z,20.1
2017-06-03T00:09:22.033Z,20.1
2017-06-03T00:10:24.878Z,20.1
2017-06-03T00:11:27.726Z,20.1
2017-06-03T00:12:30.821Z,20.1
2017-06-03T00:13:33.706Z,20.2
2017-06-03T00:14:36.046Z,20.1
2017-06-03T00:15:38.919Z,19.9
2017-06-03T00:16:41.764Z,20
2017-06-03T00:17:44.866Z,19.9
2017-06-03T00:18:47.576Z,19.8
2017-06-03T00:19:50.423Z,19.9
2017-06-03T00:20:53.270Z,19.9
2017-06-03T00:22:59.274Z,19.8
2017-06-03T00:24:01.614Z,19.8
2017-06-03T00:25:04.480Z,19.6
2017-06-03T00:26:07.329Z,19.5
2017-06-03T00:27:10.174Z,19.5
2017-06-03T00:28:13.143Z,19.5
2017-06-03T00:29:15.987Z,19.5
2017-06-03T00:30:18.830Z,19.5
2017-06-03T00:31:21.537Z,19.6
2017-06-03T00:32:24.382Z,19.6
2017-06-03T00:33:27.478Z,19.6
2017-06-03T00:34:30.323Z,19.6
2017-06-03T00:35:33.163Z,19.6
2017-06-03T00:36:36.003Z,19.6
2017-06-03T00:37:38.844Z,19.6
2017-06-03T00:38:41.485Z,19.7
2017-06-03T00:39:44.193Z,19.7
2017-06-03T00:40:46.900Z,19.6
2017-06-03T00:42:52.654Z,19.6
2017-06-03T00:43:55.746Z,19.5
2017-06-03T00:44:58.590Z,19.6
2017-06-03T00:46:01.430Z,19.5
2017-06-03T00:47:04.272Z,19.5
2017-06-03T00:48:07.115Z,19.5
2017-06-03T00:49:10.076Z,19.5
2017-06-03T00:50:12.422Z,19.5
2017-06-03T00:51:15.268Z,19.5
2017-06-03T00:52:18.115Z,19.5
2017-06-03T00:53:20.961Z,19.5
2017-06-03T00:54:24.052Z,19.5
2017-06-03T00:55:26.900Z,19.5
2017-06-03T00:56:30.306Z,19.5
2017-06-03T00:57:32.643Z,19.3
2017-06-03T00:58:35.354Z,19.2
2017-06-03T00:59:38.478Z,19.1
2017-06-03T01:00:40.820Z,19
2017-06-03T01:01:43.720Z,18.9
2017-06-03T01:02:46.557Z,18.8
2017-06-03T01:03:49.270Z,18.7
2017-06-03T01:04:52.230Z,18.7
2017-06-03T01:05:55.080Z,18.8
2017-06-03T01:06:57.928Z,18.8
2017-06-03T01:08:00.772Z,18.7
2017-06-03T01:09:03.620Z,18.6
2017-06-03T01:10:06.641Z,18.6
2017-06-03T01:11:08.845Z,18.5
2017-06-03T01:12:11.697Z,18.4
2017-06-03T01:13:14.538Z,18.4
2017-06-03T01:14:17.310Z,18.5
2017-06-03T01:15:20.953Z,18.6
2017-06-03T01:16:23.293Z,18.7
2017-06-03T01:17:25.503Z,18.6
2017-06-03T01:18:28.714Z,18.6
2017-06-03T01:19:31.555Z,18.6
2017-06-03T01:20:34.650Z,18.6
2017-06-03T01:21:36.995Z,18.6
2017-06-03T01:22:39.839Z,18.6
2017-06-03T01:23:42.679Z,18.5
2017-06-03T01:24:45.523Z,18.6
2017-06-03T01:25:48.666Z,18.6
2017-06-03T01:26:51.004Z,18.6
2017-06-03T01:27:53.844Z,18.6
2017-06-03T01:28:56.559Z,18.6
2017-06-03T01:29:59.809Z,18.7
2017-06-03T01:31:02.402Z,18.7
2017-06-03T01:32:05.113Z,18.8
2017-06-03T01:33:07.822Z,18.8
2017-06-03T01:34:10.662Z,18.8
2017-06-03T01:35:13.503Z,18.8
2017-06-03T01:36:16.595Z,18.8
2017-06-03T01:37:18.930Z,18.8
2017-06-03T01:38:21.639Z,18.8
2017-06-03T01:39:24.477Z,18.8
2017-06-03T01:40:27.186Z,18.7
2017-06-03T01:41:30.149Z,18.7
2017-06-03T01:42:32.993Z,18.7
2017-06-03T01:43:35.836Z,18.6
2017-06-03T01:44:38.686Z,18.6
2017-06-03T01:45:41.524Z,18.6
2017-06-03T01:46:44.651Z,18.6
2017-06-03T01:47:46.990Z,18.6
2017-06-03T01:48:49.856Z,18.7
2017-06-03T01:49:52.696Z,18.6
2017-06-03T01:50:55.540Z,18.6
2017-06-03T01:53:01.113Z,18.7
2017-06-03T01:54:03.955Z,18.8
2017-06-03T01:55:06.803Z,18.8
2017-06-03T01:56:09.641Z,18.8
2017-06-03T01:57:12.912Z,18.8
2017-06-03T01:58:15.506Z,18.8
2017-06-03T01:59:17.851Z,18.8
2017-06-03T02:00:20.692Z,18.8
2017-06-03T02:01:23.540Z,18.8
2017-06-03T02:02:26.381Z,18.8
2017-06-03T02:03:29.473Z,18.8
2017-06-03T02:04:31.805Z,18.8
2017-06-03T02:05:34.650Z,18.8
2017-06-03T02:06:37.495Z,18.8
2017-06-03T02:07:40.334Z,18.8
2017-06-03T02:08:43.198Z,18.7
2017-06-03T02:09:46.039Z,18.6
2017-06-03T02:10:48.884Z,18.6
2017-06-03T02:12:54.135Z,18.7
2017-06-03T02:13:57.234Z,18.7
2017-06-03T02:16:02.486Z,18.7
2017-06-03T02:17:05.328Z,18.8
2017-06-03T02:18:08.034Z,18.6
2017-06-03T02:19:11.363Z,18.1
2017-06-03T02:20:14.205Z,17.6
2017-06-03T02:21:16.570Z,17.3
2017-06-03T02:22:19.414Z,17.2
2017-06-03T02:23:22.262Z,17.1
2017-06-03T02:24:25.220Z,16.8
2017-06-03T02:25:28.063Z,16.7
2017-06-03T02:26:30.909Z,16.5
2017-06-03T02:27:33.752Z,16.6
2017-06-03T02:28:36.592Z,16.5
2017-06-03T02:29:39.193Z,16.5
2017-06-03T02:30:42.052Z,16.5
2017-06-03T02:31:44.900Z,16.4
2017-06-03T02:32:48.307Z,16.1
2017-06-03T02:33:50.181Z,16.1
2017-06-03T02:34:53.277Z,15.9
2017-06-03T02:35:55.622Z,16
2017-06-03T02:36:58.327Z,16
2017-06-03T02:38:01.542Z,16.4
2017-06-03T02:39:04.203Z,16.3
2017-06-03T02:40:07.166Z,16.6
2017-06-03T02:41:09.511Z,16.6
2017-06-03T02:42:12.232Z,16.5
2017-06-03T02:43:15.072Z,16.3
2017-06-03T02:44:17.912Z,16.2
2017-06-03T02:45:21.009Z,16.3
2017-06-03T02:46:23.850Z,16.5
2017-06-03T02:47:26.191Z,16.6
2017-06-03T02:48:29.032Z,16.6
2017-06-03T02:49:31.880Z,16.6
2017-06-03T02:50:34.971Z,16.5
2017-06-03T02:51:37.179Z,16.7
2017-06-03T02:52:40.024Z,16.6
2017-06-03T02:53:42.865Z,16.4
2017-06-03T02:54:45.703Z,16.3
2017-06-03T02:55:48.666Z,16.3
2017-06-03T02:56:51.507Z,16.4
2017-06-03T02:57:53.848Z,16.5
2017-06-03T02:58:56.690Z,16.5
2017-06-03T02:59:59.533Z,16.6
2017-06-03T03:01:02.677Z,16.5
2017-06-03T03:02:05.014Z,16.5
2017-06-03T03:03:07.855Z,16.3
2017-06-03T03:04:10.700Z,16.5
2017-06-03T03:05:13.544Z,16.6
2017-06-03T03:06:16.505Z,16.8
2017-06-03T03:07:18.840Z,16.7
2017-06-03T03:08:21.685Z,16.8
2017-06-03T03:09:24.390Z,16.7
2017-06-03T03:10:27.256Z,16.7
2017-06-03T03:12:33.269Z,16.7
2017-06-03T03:13:35.605Z,16.7
2017-06-03T03:14:38.315Z,16.8
2017-06-03T03:15:41.030Z,16.8
2017-06-03T03:16:43.874Z,16.9
2017-06-03T03:17:46.968Z,17
2017-06-03T03:18:49.314Z,16.9
2017-06-03T03:19:52.160Z,16.8
2017-06-03T03:20:55.579Z,17
2017-06-03T03:21:57.919Z,17
2017-06-03T03:23:00.509Z,17.1
2017-06-03T03:24:03.218Z,17
2017-06-03T03:25:05.797Z,17.1
2017-06-03T03:26:08.641Z,17.1
2017-06-03T03:27:11.485Z,17.1
2017-06-03T03:28:14.579Z,17.1
2017-06-03T03:29:16.918Z,17.1
2017-06-03T03:30:20.325Z,17.2
2017-06-03T03:31:22.531Z,17.1
2017-06-03T03:32:25.379Z,17
2017-06-03T03:33:28.472Z,17
2017-06-03T03:34:30.809Z,16.8
2017-06-03T03:35:33.653Z,16.8
2017-06-03T03:36:36.492Z,16.8
2017-06-03T03:37:39.353Z,16.6
2017-06-03T03:38:41.672Z,16.4
2017-06-03T03:39:44.902Z,16.3
2017-06-03T03:40:47.240Z,16.4
2017-06-03T03:41:50.083Z,16.2
2017-06-03T03:42:52.927Z,16.2
2017-06-03T03:43:56.019Z,16.4
2017-06-03T03:44:58.369Z,16.5
2017-06-03T03:46:01.270Z,16.4
2017-06-03T03:47:04.115Z,16.3
2017-06-03T03:48:06.958Z,16.3
2017-06-03T03:49:10.049Z,16.5
2017-06-03T03:50:12.946Z,16.5
2017-06-03T03:51:15.287Z,16.6
2017-06-03T03:52:17.622Z,16.8
2017-06-03T03:53:20.481Z,16.8
2017-06-03T03:54:23.574Z,16.8
2017-06-03T03:55:25.913Z,16.8
2017-06-03T03:56:28.757Z,16.9
2017-06-03T03:57:31.598Z,17
2017-06-03T03:58:34.446Z,17
2017-06-03T03:59:37.599Z,17
2017-06-03T04:00:39.939Z,16.9
2017-06-03T04:01:42.784Z,16.4
2017-06-03T04:02:45.626Z,16.3
2017-06-03T04:03:47.971Z,16.2
2017-06-03T04:04:51.068Z,16.1
2017-06-03T04:05:53.402Z,16.1
2017-06-03T04:06:56.244Z,15.9
2017-06-03T04:07:59.085Z,15.8
2017-06-03T04:09:01.934Z,15.5
2017-06-03T04:10:04.905Z,15.7
2017-06-03T04:11:07.244Z,15.9
2017-06-03T04:12:09.954Z,16
2017-06-03T04:13:12.662Z,15.9
2017-06-03T04:14:15.503Z,15.9
2017-06-03T04:15:18.593Z,15.8
2017-06-03T04:16:20.932Z,15.7
2017-06-03T04:17:23.778Z,15.6
2017-06-03T04:18:26.621Z,15.6
2017-06-03T04:19:29.459Z,15.6
2017-06-03T04:20:32.555Z,15.8
2017-06-03T04:21:34.761Z,15.8
2017-06-03T04:22:37.470Z,15.7
2017-06-03T04:23:40.312Z,15.6
2017-06-03T04:24:43.019Z,15.4
2017-06-03T04:25:46.116Z,15.5
2017-06-03T04:26:48.451Z,15.5
2017-06-03T04:27:51.293Z,15.4
2017-06-03T04:28:54.131Z,15.4
2017-06-03T04:29:56.978Z,15.3
2017-06-03T04:32:02.505Z,15.3
2017-06-03T04:33:04.844Z,15.6
2017-06-03T04:34:07.692Z,15.6
2017-06-03T04:35:10.398Z,15.5
2017-06-03T04:36:13.239Z,15.5
2017-06-03T04:38:19.246Z,15.5
2017-06-03T04:39:21.582Z,15.6
2017-06-03T04:40:24.420Z,15.8
2017-06-03T04:41:26.629Z,15.9
2017-06-03T04:42:29.839Z,15.8
2017-06-03T04:43:32.939Z,15.9
2017-06-03T04:44:35.282Z,15.8
2017-06-03T04:45:38.400Z,15.6
2017-06-03T04:46:40.740Z,15.6
2017-06-03T04:47:43.578Z,15.8
2017-06-03T04:48:46.410Z,15.8
2017-06-03T04:49:48.748Z,15.8
2017-06-03T04:50:51.457Z,15.6
2017-06-03T04:51:54.299Z,15.7
2017-06-03T04:52:57.004Z,15.7
2017-06-03T04:53:59.965Z,15.8
2017-06-03T04:55:02.675Z,15.7
2017-06-03T04:56:05.528Z,15.7
2017-06-03T04:57:08.243Z,15.6
2017-06-03T04:58:10.961Z,15.6
2017-06-03T04:59:14.055Z,15.6
2017-06-03T05:00:16.395Z,15.6
2017-06-03T05:01:18.974Z,15.5
2017-06-03T05:02:21.818Z,15.6
2017-06-03T05:03:24.663Z,15.5
2017-06-03T05:04:27.758Z,15.6
2017-06-03T05:05:30.138Z,15.6
2017-06-03T05:06:32.980Z,15.6
2017-06-03T05:07:35.323Z,15.6
2017-06-03T05:08:38.163Z,15.6
2017-06-03T05:09:41.265Z,15.6
2017-06-03T05:10:43.606Z,15.7
2017-06-03T05:11:46.453Z,15.7
2017-06-03T05:12:49.293Z,15.8
2017-06-03T05:13:52.137Z,15.9
2017-06-03T05:14:55.095Z,15.8
2017-06-03T05:15:57.436Z,15.8
2017-06-03T05:17:00.280Z,15.8
2017-06-03T05:18:03.122Z,15.8
2017-06-03T05:19:05.462Z,15.8
2017-06-03T05:20:08.343Z,16
2017-06-03T05:21:11.056Z,16.1
2017-06-03T05:22:13.901Z,16.1
2017-06-03T05:23:16.751Z,16.2
2017-06-03T05:24:19.594Z,16.3
2017-06-03T05:25:22.051Z,16.3
2017-06-03T05:26:24.897Z,16.4
2017-06-03T05:27:27.671Z,16.5
2017-06-03T05:28:30.511Z,16.5
2017-06-03T05:29:32.714Z,16.6
2017-06-03T05:30:36.312Z,16.6
2017-06-03T05:31:38.650Z,16.5
2017-06-03T05:32:41.491Z,16.6
2017-06-03T05:33:43.832Z,16.6
2017-06-03T05:34:46.681Z,16.6
2017-06-03T05:35:50.357Z,16.6
2017-06-03T05:36:52.193Z,16.6
2017-06-03T05:37:55.038Z,16.7
2017-06-03T05:38:57.880Z,16.7
2017-06-03T05:40:00.720Z,16.7
2017-06-03T05:41:03.311Z,16.6
2017-06-03T05:42:06.156Z,16.5
2017-06-03T05:43:09.000Z,16.5
2017-06-03T05:44:11.337Z,16.4
2017-06-03T05:45:14.180Z,16.4
2017-06-03T05:46:17.141Z,16.5
2017-06-03T05:47:19.851Z,16.5
2017-06-03T05:48:22.699Z,16.5
2017-06-03T05:49:25.544Z,16.5
2017-06-03T05:51:31.050Z,16.5
2017-06-03T05:52:33.393Z,16.6
2017-06-03T05:53:36.104Z,16.5
2017-06-03T05:54:38.950Z,16.5
2017-06-03T05:55:41.795Z,16.4
2017-06-03T05:56:44.768Z,16.4
2017-06-03T05:57:47.612Z,16.3
2017-06-03T05:58:49.956Z,16.4
2017-06-03T06:00:55.711Z,16.5
2017-06-03T06:01:58.808Z,16.4
2017-06-03T06:03:01.151Z,16.4
2017-06-03T06:04:03.997Z,16.3
2017-06-03T06:05:06.847Z,16.2
2017-06-03T06:06:09.197Z,16.1
2017-06-03T06:07:12.297Z,16.1
2017-06-03T06:08:15.152Z,16.3
2017-06-03T06:09:17.492Z,16.3
2017-06-03T06:10:20.347Z,16.3
2017-06-03T06:11:23.054Z,16.3
2017-06-03T06:12:26.520Z,16.3
2017-06-03T06:13:28.724Z,16.3
2017-06-03T06:14:31.568Z,16.2
2017-06-03T06:15:34.413Z,16.2
2017-06-03T06:16:37.256Z,16.3
2017-06-03T06:17:40.355Z,16.4
2017-06-03T06:18:42.696Z,16.4
2017-06-03T06:19:45.539Z,16.5
2017-06-03T06:20:48.382Z,16.4
2017-06-03T06:21:51.232Z,16.3
2017-06-03T06:22:54.382Z,16.3
2017-06-03T06:23:56.726Z,16.3
2017-06-03T06:24:59.067Z,16.3
2017-06-03T06:26:01.914Z,16.3
2017-06-03T06:27:04.757Z,16.3
2017-06-03T06:28:07.849Z,16.3
2017-06-03T06:29:10.059Z,16.3
2017-06-03T06:30:13.406Z,16.4
2017-06-03T06:31:15.614Z,16.4
2017-06-03T06:32:18.826Z,16.4
2017-06-03T06:33:21.787Z,16.5
2017-06-03T06:34:24.494Z,16.4
2017-06-03T06:35:27.360Z,16.5
2017-06-03T06:36:29.699Z,16.5
2017-06-03T06:37:32.545Z,16.4
2017-06-03T06:38:35.640Z,16.4
2017-06-03T06:39:38.492Z,16.4
2017-06-03T06:40:40.839Z,16.4
2017-06-03T06:41:44.258Z,16.4
2017-06-03T06:42:46.595Z,16.3
2017-06-03T06:43:49.553Z,16.4
2017-06-03T06:44:52.261Z,16.4
2017-06-03T06:46:57.514Z,16.5
2017-06-03T06:48:00.356Z,16.6
2017-06-03T06:49:03.462Z,16.6
2017-06-03T06:50:06.310Z,16.7
2017-06-03T06:51:09.156Z,16.8
2017-06-03T06:52:11.495Z,16.8
2017-06-03T06:53:14.342Z,16.8
2017-06-03T06:54:17.436Z,16.8
2017-06-03T06:55:20.278Z,16.9
2017-06-03T06:56:23.122Z,17
2017-06-03T06:57:25.973Z,17
2017-06-03T06:58:28.815Z,17
2017-06-03T06:59:31.408Z,17
2017-06-03T07:00:34.257Z,17
2017-06-03T07:01:37.098Z,17
2017-06-03T07:02:39.939Z,17
2017-06-03T07:03:42.784Z,16.9
2017-06-03T07:04:45.880Z,16.9
2017-06-03T07:05:48.223Z,16.8
2017-06-03T07:06:51.066Z,16.9
2017-06-03T07:07:53.907Z,16.8
2017-06-03T07:08:56.750Z,16.9
2017-06-03T07:09:59.896Z,16.9
2017-06-03T07:11:02.239Z,16.9
2017-06-03T07:12:05.080Z,17
2017-06-03T07:13:07.923Z,17
2017-06-03T07:14:10.773Z,17
2017-06-03T07:15:13.865Z,17
2017-06-03T07:16:16.570Z,17
2017-06-03T07:17:19.280Z,17.1
2017-06-03T07:18:21.988Z,17.1
2017-06-03T07:19:24.834Z,17.1
2017-06-03T07:20:27.929Z,17.1
2017-06-03T07:21:30.644Z,17.1
2017-06-03T07:22:33.487Z,17.1
2017-06-03T07:23:36.891Z,17.1
2017-06-03T07:24:39.229Z,17.1
2017-06-03T07:25:42.191Z,17.2
2017-06-03T07:26:44.538Z,17.2
2017-06-03T07:27:47.384Z,17.2
2017-06-03T07:28:50.227Z,17.3
2017-06-03T07:29:53.074Z,17.3
2017-06-03T07:30:56.171Z,17.3
2017-06-03T07:31:59.011Z,17.3
2017-06-03T07:33:01.721Z,17.3
2017-06-03T07:34:04.566Z,17.3
2017-06-03T07:35:07.147Z,17.3
2017-06-03T07:36:10.750Z,17.3
2017-06-03T07:37:13.096Z,17.3
2017-06-03T07:38:15.941Z,17.3
2017-06-03T07:39:18.647Z,17.3
2017-06-03T07:40:21.858Z,17.3
2017-06-03T07:41:24.958Z,17.4
2017-06-03T07:42:27.296Z,17.4
2017-06-03T07:43:30.009Z,17.4
2017-06-03T07:44:32.716Z,17.4
2017-06-03T07:46:38.723Z,17.5
2017-06-03T07:47:41.563Z,17.5
2017-06-03T07:48:44.418Z,17.5
2017-06-03T07:49:47.270Z,17.5
2017-06-03T07:50:50.120Z,17.5
2017-06-03T07:51:53.248Z,17.5
2017-06-03T07:52:55.593Z,17.6
2017-06-03T07:53:58.438Z,17.6
2017-06-03T07:55:01.646Z,17.6
2017-06-03T07:56:04.233Z,17.5
2017-06-03T07:57:07.349Z,17.5
2017-06-03T07:58:09.922Z,17.6
2017-06-03T07:59:12.765Z,17.6
2017-06-03T08:00:15.609Z,17.6
2017-06-03T08:01:18.460Z,17.7
2017-06-03T08:02:21.426Z,17.7
2017-06-03T08:03:24.135Z,17.7
2017-06-03T08:04:26.984Z,17.7
2017-06-03T08:05:29.831Z,17.8
2017-06-03T08:06:32.674Z,17.8
2017-06-03T08:07:35.771Z,17.8
2017-06-03T08:08:38.640Z,17.8
2017-06-03T08:09:41.351Z,17.9
2017-06-03T08:10:43.925Z,17.9
2017-06-03T08:11:47.272Z,18
2017-06-03T08:12:50.370Z,18
2017-06-03T08:13:52.712Z,18
2017-06-03T08:14:55.562Z,18
2017-06-03T08:15:58.403Z,18.1
2017-06-03T08:17:01.251Z,18.1
2017-06-03T08:18:04.848Z,18.1
2017-06-03T08:19:07.196Z,18.1
2017-06-03T08:20:09.909Z,18.1
2017-06-03T08:21:12.759Z,18.1
2017-06-03T08:22:16.113Z,18.1
2017-06-03T08:23:19.124Z,18
2017-06-03T08:25:24.379Z,18
2017-06-03T08:26:27.591Z,18.1
2017-06-03T08:27:30.436Z,18.1
2017-06-03T08:28:33.530Z,18.1
2017-06-03T08:29:35.763Z,18.1
2017-06-03T08:30:39.108Z,18.1
2017-06-03T08:31:41.953Z,18.1
2017-06-03T08:32:44.800Z,18.1
2017-06-03T08:33:47.898Z,18.1
2017-06-03T08:34:50.241Z,18.1
2017-06-03T08:35:52.952Z,18.1
2017-06-03T08:37:59.211Z,18.3
2017-06-03T08:39:02.318Z,18.3
2017-06-03T08:40:04.661Z,18.3
2017-06-03T08:41:07.942Z,18.3
2017-06-03T08:42:10.795Z,18.3
2017-06-03T08:43:13.646Z,18.3
2017-06-03T08:44:16.740Z,18.3
2017-06-03T08:45:19.590Z,18.3
2017-06-03T08:46:22.301Z,18.3
2017-06-03T08:47:25.010Z,18.3
2017-06-03T08:48:27.719Z,18.3
2017-06-03T08:49:31.320Z,18.3
2017-06-03T08:50:33.663Z,18.3
2017-06-03T08:51:36.376Z,18.3
2017-06-03T08:52:39.723Z,18.3
2017-06-03T08:53:42.570Z,18.3
2017-06-03T08:54:45.665Z,18.3
2017-06-03T08:55:48.510Z,18.3
2017-06-03T08:56:51.355Z,18.3
2017-06-03T08:57:54.199Z,18.3
2017-06-03T08:58:57.044Z,18.3
2017-06-03T09:00:00.190Z,18.3
2017-06-03T09:01:02.529Z,18.3
2017-06-03T09:02:05.750Z,18.3
2017-06-03T09:03:08.591Z,18.2
2017-06-03T09:04:11.440Z,18.3
2017-06-03T09:05:14.533Z,18.3
2017-06-03T09:06:17.241Z,18.3
2017-06-03T09:07:19.955Z,18.2
2017-06-03T09:08:22.670Z,18.3
2017-06-03T09:09:25.883Z,18.3
2017-06-03T09:10:28.979Z,18.3
2017-06-03T09:11:31.693Z,18.3
2017-06-03T09:12:34.402Z,18.3
2017-06-03T09:13:37.248Z,18.3
2017-06-03T09:14:39.961Z,18.3
2017-06-03T09:15:43.430Z,18.2
2017-06-03T09:16:45.771Z,18.2
2017-06-03T09:17:48.618Z,18.2
2017-06-03T09:18:51.465Z,18.1
2017-06-03T09:19:54.679Z,18.1
2017-06-03T09:20:57.650Z,18.1
2017-06-03T09:21:59.992Z,18.2
2017-06-03T09:23:02.831Z,18.2
2017-06-03T09:24:05.409Z,18.2
2017-06-03T09:25:08.769Z,18.1
2017-06-03T09:26:11.866Z,18.1
2017-06-03T09:27:14.211Z,18.2
2017-06-03T09:28:17.057Z,18.1
2017-06-03T09:29:19.904Z,18.2
2017-06-03T09:30:22.748Z,18.1
2017-06-03T09:31:25.846Z,18.1
2017-06-03T09:32:28.698Z,18.1
2017-06-03T09:33:31.964Z,18.1
2017-06-03T09:34:34.303Z,18.1
2017-06-03T09:35:37.011Z,18.1
2017-06-03T09:36:40.108Z,18.1
2017-06-03T09:37:42.956Z,18.1
2017-06-03T09:38:45.799Z,18.2
2017-06-03T09:39:48.642Z,18.2
2017-06-03T09:40:51.492Z,18.2
2017-06-03T09:41:54.590Z,18.2
2017-06-03T09:42:57.296Z,18.3
2017-06-03T09:45:03.058Z,18.3
2017-06-03T09:46:05.501Z,18.3
2017-06-03T09:47:08.606Z,18.3
2017-06-03T09:48:11.450Z,18.3
2017-06-03T09:49:14.363Z,18.3
2017-06-03T09:50:17.210Z,18.3
2017-06-03T09:51:20.065Z,18.3
2017-06-03T09:52:23.161Z,18.3
2017-06-03T09:53:25.503Z,18.3
2017-06-03T09:54:28.343Z,18.3
2017-06-03T09:55:31.189Z,18.4
2017-06-03T09:56:34.039Z,18.5
2017-06-03T09:57:37.140Z,18.5
2017-06-03T09:58:39.987Z,18.5
2017-06-03T09:59:42.697Z,18.5
2017-06-03T10:00:45.543Z,18.5
2017-06-03T10:01:48.386Z,18.5
2017-06-03T10:02:51.345Z,18.6
2017-06-03T10:03:54.192Z,18.6
2017-06-03T10:04:57.038Z,18.6
2017-06-03T10:05:59.746Z,18.6
2017-06-03T10:07:02.458Z,18.7
2017-06-03T10:08:05.557Z,18.8
2017-06-03T10:09:08.407Z,18.8
2017-06-03T10:10:11.258Z,18.8
2017-06-03T10:11:14.102Z,18.8
2017-06-03T10:12:16.949Z,18.8
2017-06-03T10:13:19.966Z,18.9
2017-06-03T10:14:22.812Z,19
2017-06-03T10:15:25.656Z,19
2017-06-03T10:16:28.506Z,19
2017-06-03T10:17:31.352Z,19.1
2017-06-03T10:18:34.314Z,19.2
2017-06-03T10:19:37.024Z,19.1
2017-06-03T10:20:39.737Z,19.2
2017-06-03T10:21:42.450Z,19.2
2017-06-03T10:22:45.799Z,19.3
2017-06-03T10:23:48.895Z,19.2
2017-06-03T10:24:51.109Z,19.2
2017-06-03T10:26:57.374Z,19.2
2017-06-03T10:28:00.251Z,19.2
2017-06-03T10:29:03.353Z,19.1
2017-06-03T10:30:05.699Z,19.1
2017-06-03T10:31:08.545Z,19.1
2017-06-03T10:32:11.901Z,19.1
2017-06-03T10:33:14.749Z,19.1
2017-06-03T10:34:17.843Z,19.1
2017-06-03T10:35:20.183Z,19.2
2017-06-03T10:36:22.763Z,19.2
2017-06-03T10:37:26.112Z,19.1
2017-06-03T10:38:28.955Z,19.1
2017-06-03T10:39:32.101Z,19.1
2017-06-03T10:40:34.941Z,19.1
2017-06-03T10:41:37.788Z,19.1
2017-06-03T10:42:41.192Z,19.1
2017-06-03T10:43:43.402Z,19.1
2017-06-03T10:44:46.500Z,19.1
2017-06-03T10:45:49.344Z,19.1
2017-06-03T10:46:52.190Z,19.1
2017-06-03T10:47:55.035Z,19.2
2017-06-03T10:48:57.883Z,19.2
2017-06-03T10:50:00.989Z,19.2
2017-06-03T10:51:03.704Z,19.2
2017-06-03T10:52:06.954Z,19.2
2017-06-03T10:53:09.048Z,19.2
2017-06-03T10:54:12.263Z,19.2
2017-06-03T10:55:15.362Z,19.3
2017-06-03T10:56:18.206Z,19.3
2017-06-03T10:57:21.047Z,19.3
2017-06-03T10:58:23.894Z,19.3
2017-06-03T10:59:26.737Z,19.4
2017-06-03T11:00:30.255Z,19.4
2017-06-03T11:01:32.595Z,19.4
2017-06-03T11:02:35.447Z,19.4
2017-06-03T11:03:38.295Z,19.5
2017-06-03T11:04:41.645Z,19.5
2017-06-03T11:05:44.610Z,19.5
2017-06-03T11:06:47.451Z,19.5
2017-06-03T11:07:50.294Z,19.5
2017-06-03T11:08:53.140Z,19.6
2017-06-03T11:09:55.996Z,19.5
2017-06-03T11:12:02.008Z,19.6
2017-06-03T11:13:04.861Z,19.5
2017-06-03T11:14:07.574Z,19.6
2017-06-03T11:15:10.420Z,19.6
2017-06-03T11:16:13.824Z,19.6
2017-06-03T11:17:16.791Z,19.5
2017-06-03T11:18:19.132Z,19.5
2017-06-03T11:19:21.973Z,19.5
2017-06-03T11:20:25.325Z,19.6
2017-06-03T11:21:28.171Z,19.6
2017-06-03T11:22:31.267Z,19.5
2017-06-03T11:23:33.486Z,19.6
2017-06-03T11:24:36.833Z,19.6
2017-06-03T11:25:39.544Z,19.6
2017-06-03T11:26:42.394Z,19.6
2017-06-03T11:27:46.000Z,19.7
2017-06-03T11:28:48.337Z,19.7
2017-06-03T11:29:51.182Z,19.6
2017-06-03T11:30:54.031Z,19.6
2017-06-03T11:31:57.247Z,19.6
2017-06-03T11:33:00.344Z,19.6
2017-06-03T11:34:03.222Z,19.6
2017-06-03T11:35:06.066Z,19.7
2017-06-03T11:36:08.915Z,19.7
2017-06-03T11:37:11.761Z,19.7
2017-06-03T11:38:14.857Z,19.8
2017-06-03T11:40:20.630Z,19.8
2017-06-03T11:41:23.486Z,19.8
2017-06-03T11:42:26.194Z,19.8
2017-06-03T11:43:29.290Z,19.8
2017-06-03T11:44:31.995Z,19.8
2017-06-03T11:45:35.214Z,19.8
2017-06-03T11:46:38.063Z,19.9
2017-06-03T11:47:40.775Z,19.9
2017-06-03T11:48:43.877Z,19.9
2017-06-03T11:49:46.746Z,19.8
2017-06-03T11:50:49.462Z,19.8
2017-06-03T11:51:52.365Z,19.8
2017-06-03T11:52:55.717Z,19.8
2017-06-03T11:53:58.868Z,19.8
2017-06-03T11:55:01.207Z,19.8
2017-06-03T11:56:04.052Z,19.8
2017-06-03T11:57:07.280Z,19.8
2017-06-03T11:58:09.860Z,19.8
2017-06-03T12:00:16.380Z,19.8
2017-06-03T12:01:18.726Z,19.9
2017-06-03T12:02:21.573Z,19.9
2017-06-03T12:03:24.924Z,20
2017-06-03T12:04:27.768Z,19.9
2017-06-03T12:05:30.732Z,20
2017-06-03T12:06:33.578Z,19.9
2017-06-03T12:07:36.285Z,20
2017-06-03T12:08:39.134Z,20
2017-06-03T12:09:42.553Z,19.9
2017-06-03T12:10:45.206Z,19.9
2017-06-03T12:11:48.051Z,20
2017-06-03T12:12:50.900Z,20
2017-06-03T12:13:53.607Z,20
2017-06-03T12:14:56.954Z,20
2017-06-03T12:16:00.057Z,20
2017-06-03T12:17:02.905Z,20
2017-06-03T12:18:05.754Z,20.1
2017-06-03T12:19:08.464Z,20.1
2017-06-03T12:20:11.308Z,20.2
2017-06-03T12:21:14.841Z,20.3
2017-06-03T12:22:17.048Z,20.3
2017-06-03T12:23:20.414Z,20.3
2017-06-03T12:24:23.261Z,20.3
2017-06-03T12:25:26.099Z,20.3
2017-06-03T12:26:29.198Z,20.3
2017-06-03T12:27:31.910Z,20.3
2017-06-03T12:29:37.675Z,20.3
2017-06-03T12:30:40.517Z,20.4
2017-06-03T12:31:44.116Z,20.4
2017-06-03T12:32:46.462Z,20.5
2017-06-03T12:33:49.307Z,20.5
2017-06-03T12:34:52.657Z,20.5
2017-06-03T12:35:55.505Z,20.5
2017-06-03T12:36:58.611Z,20.5
2017-06-03T12:38:01.461Z,20.6
2017-06-03T12:39:04.308Z,20.6
2017-06-03T12:40:07.577Z,20.6
2017-06-03T12:41:09.930Z,20.7
2017-06-03T12:42:13.049Z,20.8
2017-06-03T12:43:15.903Z,21
2017-06-03T12:44:18.748Z,20.9
2017-06-03T12:45:22.154Z,21
2017-06-03T12:46:24.503Z,20.9
2017-06-03T12:47:28.110Z,20.9
2017-06-03T12:48:30.823Z,20.8
2017-06-03T12:49:33.529Z,20.8
2017-06-03T12:50:36.245Z,20.8
2017-06-03T12:51:39.601Z,20.8
2017-06-03T12:52:42.721Z,20.8
2017-06-03T12:53:45.561Z,20.8
2017-06-03T12:54:48.405Z,20.8
2017-06-03T12:55:51.254Z,21
2017-06-03T12:56:54.099Z,21
2017-06-03T12:57:57.060Z,20.9
2017-06-03T12:58:59.771Z,20.9
2017-06-03T13:00:03.120Z,20.9
2017-06-03T13:01:05.973Z,21
2017-06-03T13:02:08.820Z,21
2017-06-03T13:03:11.922Z,21
2017-06-03T13:04:14.791Z,21
2017-06-03T13:05:18.008Z,21.1
2017-06-03T13:06:20.721Z,21.2
2017-06-03T13:07:23.439Z,21.1
2017-06-03T13:08:27.042Z,21.1
2017-06-03T13:09:29.384Z,21
2017-06-03T13:10:32.733Z,21
2017-06-03T13:11:35.576Z,21
2017-06-03T13:12:38.416Z,21.1
2017-06-03T13:13:41.379Z,21
2017-06-03T13:14:44.227Z,21
2017-06-03T13:15:47.076Z,21
2017-06-03T13:16:50.429Z,20.9
2017-06-03T13:17:53.141Z,20.9
2017-06-03T13:18:56.232Z,21
2017-06-03T13:19:59.076Z,21.1
2017-06-03T13:21:01.786Z,21.1
2017-06-03T13:22:05.141Z,21.1
2017-06-03T13:23:07.986Z,21
2017-06-03T13:24:10.945Z,21
2017-06-03T13:25:13.726Z,21
2017-06-03T13:26:17.080Z,21
2017-06-03T13:27:19.921Z,21
2017-06-03T13:28:22.766Z,21
2017-06-03T13:30:28.643Z,21.1
2017-06-03T13:31:31.357Z,21.1
2017-06-03T13:32:34.574Z,21.1
2017-06-03T13:33:37.423Z,21.1
2017-06-03T13:34:40.266Z,21.1
2017-06-03T13:35:43.736Z,21.1
2017-06-03T13:36:46.581Z,21.3
2017-06-03T13:37:49.431Z,21.3
2017-06-03T13:38:52.279Z,21.3
2017-06-03T13:39:55.123Z,21.3
2017-06-03T13:40:58.090Z,21.2
2017-06-03T13:42:00.938Z,21.2
2017-06-03T13:43:04.287Z,21.1
2017-06-03T13:44:07.130Z,21.1
2017-06-03T13:45:09.987Z,21.1
2017-06-03T13:46:13.088Z,21.1
2017-06-03T13:47:15.933Z,21
2017-06-03T13:48:18.781Z,21
2017-06-03T13:49:21.635Z,21
2017-06-03T13:50:24.981Z,21
2017-06-03T13:51:28.142Z,21
2017-06-03T13:52:30.484Z,21
2017-06-03T13:53:33.835Z,21
2017-06-03T13:54:36.681Z,20.8
2017-06-03T13:55:39.526Z,20.7
2017-06-03T13:56:42.622Z,20.6
2017-06-03T13:57:45.327Z,20.5
2017-06-03T13:58:48.540Z,20.3
2017-06-03T13:59:51.250Z,20.3
2017-06-03T14:00:54.096Z,20.3
2017-06-03T14:01:57.190Z,20.3
2017-06-03T14:03:00.032Z,20.3
2017-06-03T14:04:02.878Z,20.3
2017-06-03T14:05:05.721Z,20.3
2017-06-03T14:06:08.564Z,20.4
2017-06-03T14:07:12.038Z,20.4
2017-06-03T14:08:14.379Z,20.5
2017-06-03T14:09:17.728Z,20.5
2017-06-03T14:10:20.569Z,20.5
2017-06-03T14:11:23.413Z,20.6
2017-06-03T14:12:26.240Z,20.6
2017-06-03T14:13:28.954Z,20.6
2017-06-03T14:14:32.173Z,20.6
2017-06-03T14:15:35.029Z,20.6
2017-06-03T14:16:37.875Z,20.5
2017-06-03T14:17:40.975Z,20.5
2017-06-03T14:18:43.819Z,20.6
2017-06-03T14:20:49.444Z,20.6
2017-06-03T14:21:52.293Z,20.6
2017-06-03T14:22:55.251Z,20.6
2017-06-03T14:23:58.465Z,20.6
2017-06-03T14:25:01.306Z,20.6